Time;durP1;ratioP1;P1;durP2;ratioP2;P2;SDS_P1;SDS_P2;PMS_P1;PMS_P2;Temp;Humidity;BMP_temperature;BMP_pressure;BME280_temperature;BME280_humidity;BME280_pressure;Samples;Min_cycle;Max_cycle;Signal;HPM_P1;HPM_P2
2023/07/25 00:02:35;;;;;;;6.40;5.80;;;26.40;53.10;;;;;;222186;1266;24189;-48
2023/07/25 00:07:39;;;;;;;6.60;6.00;;;26.40;52.80;;;;;;222044;1269;24511;-47
2023/07/25 00:12:45;;;;;;;6.40;5.80;;;26.30;52.90;;;;;;222219;1269;23139;-45
2023/07/25 00:17:49;;;;;;;6.40;5.80;;;26.30;52.90;;;;;;222085;1257;22962;-48
2023/07/25 00:22:53;;;;;;;6.20;5.50;;;26.30;53.40;;;;;;221869;1266;23129;-46
2023/07/25 00:27:58;;;;;;;6.70;6.10;;;26.30;53.00;;;;;;221935;1269;23896;-47
2023/07/25 00:33:02;;;;;;;6.20;5.60;;;26.30;53.00;;;;;;222152;1266;22765;-49
2023/07/25 00:38:06;;;;;;;5.80;5.30;;;26.30;53.10;;;;;;221884;1269;24050;-49
2023/07/25 00:43:11;;;;;;;6.50;6.00;;;26.30;53.20;;;;;;221748;1266;24363;-48
2023/07/25 00:48:16;;;;;;;6.70;5.90;;;26.30;53.30;;;;;;222025;1263;22512;-47
2023/07/25 00:53:20;;;;;;;5.60;5.10;;;26.20;53.30;;;;;;222109;1269;24157;-46
2023/07/25 00:58:25;;;;;;;6.50;5.90;;;26.20;53.30;;;;;;222086;1269;25449;-48
2023/07/25 01:03:30;;;;;;;6.70;6.10;;;26.20;53.30;;;;;;221919;1266;23898;-47
2023/07/25 01:08:49;;;;;;;7.00;6.30;;;26.30;53.40;;;;;;222025;1269;23002;-49
2023/07/25 01:13:53;;;;;;;6.20;5.70;;;26.20;53.50;;;;;;222056;1263;22524;-49
2023/07/25 01:18:58;;;;;;;7.20;5.70;;;26.20;53.10;;;;;;221948;1254;22603;-47
2023/07/25 01:24:04;;;;;;;6.00;5.40;;;26.20;53.50;;;;;;222184;1267;22617;-48
2023/07/25 01:29:08;;;;;;;7.30;5.20;;;26.20;53.50;;;;;;222240;1266;22630;-44
2023/07/25 01:34:12;;;;;;;6.70;6.00;;;26.20;53.50;;;;;;222152;1260;25564;-45
2023/07/25 01:39:16;;;;;;;6.90;5.20;;;26.10;53.40;;;;;;221850;1269;24183;-47
2023/07/25 01:44:20;;;;;;;5.80;5.20;;;26.10;53.40;;;;;;222132;1266;22511;-47
2023/07/25 01:49:25;;;;;;;9.20;5.60;;;26.10;53.80;;;;;;221883;1269;22592;-49
2023/07/25 01:54:29;;;;;;;6.10;4.90;;;26.10;53.50;;;;;;221916;1263;22612;-48
2023/07/25 01:59:33;;;;;;;5.90;5.30;;;26.10;53.50;;;;;;222070;1266;22533;-47
2023/07/25 02:04:37;;;;;;;5.50;5.00;;;26.00;53.40;;;;;;222037;1269;22518;-47
2023/07/25 02:09:41;;;;;;;5.50;4.90;;;26.10;53.40;;;;;;221993;1264;23950;-47
2023/07/25 02:14:46;;;;;;;7.40;4.90;;;26.10;53.40;;;;;;221769;1269;249457;-46
2023/07/25 02:19:50;;;;;;;5.70;5.10;;;26.10;53.30;;;;;;222292;1267;25338;-45
2023/07/25 02:24:54;;;;;;;5.80;4.40;;;26.10;53.30;;;;;;221729;1269;22508;-48
2023/07/25 02:29:58;;;;;;;4.60;4.20;;;26.00;53.20;;;;;;221741;1269;22642;-47
2023/07/25 02:35:03;;;;;;;6.40;4.30;;;26.10;53.20;;;;;;222012;1257;24254;-48
2023/07/25 02:40:08;;;;;;;4.70;4.30;;;26.00;53.10;;;;;;222232;1267;22757;-50
2023/07/25 02:45:12;;;;;;;7.30;4.20;;;26.00;53.00;;;;;;222182;1264;24059;-49
2023/07/25 02:50:16;;;;;;;5.10;3.90;;;26.00;52.90;;;;;;222316;1264;22622;-47
2023/07/25 02:55:20;;;;;;;3.80;3.30;;;26.00;52.70;;;;;;221977;1263;22522;-48
2023/07/25 03:00:25;;;;;;;4.90;3.70;;;26.00;52.60;;;;;;222090;1269;22643;-46
2023/07/25 03:05:29;;;;;;;6.50;3.20;;;26.00;52.50;;;;;;221953;1268;22517;-49
2023/07/25 03:10:33;;;;;;;5.30;3.40;;;25.90;52.40;;;;;;221989;1269;22507;-47
2023/07/25 03:15:38;;;;;;;3.40;3.00;;;26.00;52.70;;;;;;221944;1259;24401;-44
2023/07/25 03:20:42;;;;;;;4.00;3.00;;;26.00;52.40;;;;;;221796;1256;24345;-48
2023/07/25 03:25:46;;;;;;;4.80;3.30;;;25.90;52.40;;;;;;222191;1269;22520;-49
2023/07/25 03:30:51;;;;;;;2.90;2.70;;;25.90;52.40;;;;;;222176;1269;24238;-47
2023/07/25 03:35:55;;;;;;;3.30;2.90;;;25.90;52.30;;;;;;222009;1269;22508;-47
2023/07/25 03:40:59;;;;;;;3.40;3.10;;;25.90;52.40;;;;;;222423;1254;26490;-48
2023/07/25 03:46:04;;;;;;;3.50;3.20;;;25.90;52.40;;;;;;222564;1264;24237;-47
2023/07/25 03:51:08;;;;;;;3.30;3.00;;;25.90;52.40;;;;;;222192;1269;22656;-45
2023/07/25 03:56:12;;;;;;;3.30;2.90;;;25.90;52.30;;;;;;221978;1266;24183;-48
2023/07/25 04:01:16;;;;;;;2.90;2.70;;;25.90;52.40;;;;;;221887;1269;22524;-47
2023/07/25 04:06:20;;;;;;;2.90;2.60;;;25.80;52.30;;;;;;222158;1263;25307;-49
2023/07/25 04:11:25;;;;;;;3.30;2.90;;;25.90;52.50;;;;;;222080;1264;22609;-48
2023/07/25 04:16:29;;;;;;;3.00;2.80;;;25.80;52.50;;;;;;222178;1269;22564;-46
2023/07/25 04:21:33;;;;;;;2.70;2.50;;;25.80;52.50;;;;;;222135;1269;22507;-46
2023/07/25 04:26:37;;;;;;;3.50;2.50;;;25.90;52.50;;;;;;221750;1267;22518;-47
2023/07/25 04:31:42;;;;;;;2.70;2.40;;;25.80;52.50;;;;;;222095;1264;22524;-47
2023/07/25 04:36:46;;;;;;;2.60;2.40;;;25.90;52.60;;;;;;222019;1254;23652;-48
2023/07/25 04:41:50;;;;;;;2.60;2.10;;;25.80;52.60;;;;;;221776;1254;22651;-49
2023/07/25 04:46:55;;;;;;;4.10;2.20;;;25.90;52.80;;;;;;222004;1257;22605;-47
2023/07/25 04:51:59;;;;;;;3.20;2.50;;;25.80;53.10;;;;;;221735;1264;22531;-48
2023/07/25 04:57:03;;;;;;;2.30;2.20;;;25.90;53.00;;;;;;222241;1256;22523;-46
2023/07/25 05:02:07;;;;;;;2.30;2.20;;;25.80;52.90;;;;;;221890;1264;22627;-46
2023/07/25 05:07:13;;;;;;;2.40;2.20;;;25.80;53.00;;;;;;222000;1257;23483;-49
2023/07/25 05:12:17;;;;;;;2.50;2.30;;;25.80;53.00;;;;;;222198;1267;24230;-47
2023/07/25 05:17:21;;;;;;;4.70;2.50;;;25.80;53.00;;;;;;221952;1270;22523;-50
2023/07/25 05:22:25;;;;;;;2.10;1.90;;;25.80;53.50;;;;;;221947;1257;22688;-46
2023/07/25 05:27:30;;;;;;;2.50;2.20;;;25.80;53.70;;;;;;221893;1270;22533;-46
2023/07/25 05:32:34;;;;;;;2.40;2.20;;;25.80;53.30;;;;;;221739;1270;22720;-49
2023/07/25 05:37:40;;;;;;;2.30;2.20;;;25.80;53.30;;;;;;221798;1270;24409;-48
2023/07/25 05:42:47;;;;;;;2.30;2.10;;;25.80;53.40;;;;;;221937;1246;24184;-48
2023/07/25 05:47:51;;;;;;;2.20;1.90;;;25.70;53.40;;;;;;222112;1270;24187;-47
2023/07/25 05:52:55;;;;;;;2.90;2.10;;;25.80;53.50;;;;;;222100;1270;23763;-47
2023/07/25 05:57:59;;;;;;;2.50;2.10;;;25.70;53.50;;;;;;221715;1267;22524;-47
2023/07/25 06:03:03;;;;;;;3.20;2.20;;;25.70;53.60;;;;;;221828;1257;24558;-49
2023/07/25 06:08:08;;;;;;;2.10;1.90;;;25.80;53.70;;;;;;221940;1269;24242;-46
2023/07/25 06:13:12;;;;;;;2.30;2.10;;;25.70;53.70;;;;;;221914;1268;24408;-47
2023/07/25 06:18:16;;;;;;;2.20;2.10;;;25.70;53.70;;;;;;222012;1269;22709;-46
2023/07/25 06:23:21;;;;;;;1.90;1.80;;;25.70;54.10;;;;;;221905;1269;23553;-48
2023/07/25 06:28:25;;;;;;;2.10;1.90;;;25.80;53.70;;;;;;221758;1270;22530;-47
2023/07/25 06:33:29;;;;;;;2.20;2.00;;;25.90;53.80;;;;;;221916;1271;24245;-47
2023/07/25 06:38:33;;;;;;;3.30;2.30;;;25.90;53.70;;;;;;221676;1259;22784;-45
2023/07/25 06:43:37;;;;;;;2.50;1.70;;;25.90;53.80;;;;;;221650;1258;22557;-46
2023/07/25 06:48:41;;;;;;;1.90;1.80;;;25.90;53.80;;;;;;221693;1267;22781;-45
2023/07/25 06:53:46;;;;;;;2.00;1.90;;;25.80;53.70;;;;;;221724;1270;23284;-47
2023/07/25 06:58:50;;;;;;;2.20;2.10;;;25.90;53.70;;;;;;222019;1256;24387;-49
2023/07/25 07:03:55;;;;;;;2.10;2.00;;;25.90;53.70;;;;;;221998;1269;23880;-47
2023/07/25 07:08:59;;;;;;;1.90;1.70;;;25.90;53.80;;;;;;222216;1269;22531;-45
2023/07/25 07:14:03;;;;;;;2.80;1.70;;;25.90;53.80;;;;;;222059;1257;22524;-46
2023/07/25 07:19:07;;;;;;;2.00;1.70;;;25.90;53.80;;;;;;221970;1254;22534;-50
2023/07/25 07:24:11;;;;;;;2.10;2.00;;;25.90;54.40;;;;;;221938;1255;22519;-47
2023/07/25 07:29:15;;;;;;;2.60;1.90;;;25.90;54.30;;;;;;221906;1269;22501;-47
2023/07/25 07:34:20;;;;;;;2.00;1.90;;;25.90;53.70;;;;;;222223;1269;25265;-48
2023/07/25 07:39:25;;;;;;;1.90;1.80;;;25.90;53.80;;;;;;221926;1255;22523;-46
2023/07/25 07:44:29;;;;;;;2.50;2.00;;;25.90;54.10;;;;;;222245;1256;22614;-48
2023/07/25 07:49:34;;;;;;;1.70;1.60;;;25.90;53.60;;;;;;222146;1256;23007;-47
2023/07/25 07:54:38;;;;;;;1.80;1.70;;;25.90;53.40;;;;;;222102;1257;22779;-48
2023/07/25 07:59:44;;;;;;;2.20;2.00;;;25.90;53.10;;;;;;221900;1259;22633;-47
2023/07/25 08:04:47;;;;;;;2.30;2.10;;;25.90;53.30;;;;;;222170;1256;24484;-48
2023/07/25 08:09:56;;;;;;;1.80;1.70;;;25.90;53.40;;;;;;222118;1255;22510;-49
2023/07/25 08:15:01;;;;;;;2.10;1.80;;;25.90;53.50;;;;;;221867;1263;23880;-48
2023/07/25 08:20:06;;;;;;;2.20;1.70;;;26.00;53.10;;;;;;221985;1263;22803;-47
2023/07/25 08:25:11;;;;;;;3.10;2.10;;;26.00;53.00;;;;;;222325;1256;24232;-47
2023/07/25 08:30:15;;;;;;;1.70;1.60;;;26.00;52.90;;;;;;221852;1259;22504;-45
2023/07/25 08:35:19;;;;;;;1.80;1.70;;;26.00;52.80;;;;;;221861;1266;22518;-46
2023/07/25 08:40:24;;;;;;;2.20;1.90;;;26.10;52.80;;;;;;221939;1259;22512;-46
2023/07/25 08:45:29;;;;;;;1.60;1.50;;;26.10;52.80;;;;;;221747;1266;22541;-47
2023/07/25 08:50:35;;;;;;;2.30;2.00;;;26.10;52.80;;;;;;222347;1269;22976;-53
2023/07/25 08:55:40;;;;;;;1.80;1.70;;;26.10;52.80;;;;;;222201;1263;23611;-48
2023/07/25 09:00:45;;;;;;;1.80;1.70;;;26.10;52.80;;;;;;222025;1246;24336;-46
2023/07/25 09:05:49;;;;;;;3.90;2.00;;;26.10;52.80;;;;;;222079;1254;24378;-47
2023/07/25 09:10:55;;;;;;;2.50;1.90;;;26.10;52.80;;;;;;221800;1254;22522;-47
2023/07/25 09:16:00;;;;;;;2.10;1.80;;;26.10;52.70;;;;;;222128;1263;25121;-46
2023/07/25 09:21:05;;;;;;;1.90;1.80;;;26.10;52.50;;;;;;222073;1268;25383;-46
2023/07/25 09:26:12;;;;;;;1.90;1.80;;;26.20;52.30;;;;;;221946;1269;24219;-48
2023/07/25 09:31:17;;;;;;;1.80;1.70;;;26.20;52.20;;;;;;221819;1266;25246;-48
2023/07/25 09:36:22;;;;;;;1.90;1.70;;;26.30;52.10;;;;;;221936;1256;22629;-47
2023/07/25 09:41:26;;;;;;;1.70;1.60;;;26.30;52.10;;;;;;222124;1246;24256;-48
2023/07/25 09:46:30;;;;;;;1.90;1.80;;;26.30;52.10;;;;;;222030;1259;22523;-49
2023/07/25 09:51:35;;;;;;;1.70;1.60;;;26.30;52.40;;;;;;221778;1254;22514;-46
2023/07/25 09:56:42;;;;;;;3.70;1.70;;;26.30;52.30;;;;;;222063;1254;22538;-48
2023/07/25 10:01:46;;;;;;;2.00;1.90;;;26.20;51.90;;;;;;222115;1256;22514;-49
2023/07/25 10:06:51;;;;;;;2.10;1.90;;;26.20;52.10;;;;;;222194;1268;22598;-47
2023/07/25 10:11:56;;;;;;;1.80;1.70;;;26.30;51.50;;;;;;222104;1263;24378;-49
2023/07/25 10:17:00;;;;;;;2.30;2.00;;;26.20;51.40;;;;;;222053;1269;24315;-46
2023/07/25 10:22:04;;;;;;;2.10;1.80;;;26.30;51.20;;;;;;221932;1266;22511;-48
2023/07/25 10:27:12;;;;;;;2.20;1.90;;;26.30;51.00;;;;;;221727;1257;22526;-47
2023/07/25 10:32:22;;;;;;;3.50;1.90;;;26.30;50.90;;;;;;222172;1269;22533;-48
2023/07/25 10:37:38;;;;;;;1.70;1.60;;;26.30;50.40;;;;;;222017;1269;24313;-49
2023/07/25 10:42:50;;;;;;;2.10;2.00;;;26.40;50.70;;;;;;222099;1266;25682;-46
2023/07/25 10:47:58;;;;;;;1.90;1.80;;;26.40;50.80;;;;;;222268;1257;24189;-47
2023/07/25 10:53:20;;;;;;;2.20;2.00;;;26.40;50.90;;;;;;222080;1260;24246;-50
2023/07/25 10:58:24;;;;;;;2.10;1.90;;;26.40;50.70;;;;;;222328;1263;22519;-48
2023/07/25 11:03:31;;;;;;;2.10;2.00;;;26.40;50.50;;;;;;221775;1259;22535;-47
2023/07/25 11:08:44;;;;;;;2.10;2.00;;;26.30;50.30;;;;;;221889;1260;25278;-45
2023/07/25 11:13:48;;;;;;;2.30;1.70;;;26.30;50.30;;;;;;221630;1256;25304;-48
2023/07/25 11:18:52;;;;;;;1.90;1.80;;;26.30;50.40;;;;;;221829;1259;24473;-50
2023/07/25 11:24:07;;;;;;;2.70;2.10;;;26.30;50.10;;;;;;221801;1271;22540;-47
2023/07/25 11:29:13;;;;;;;2.20;2.00;;;26.40;50.20;;;;;;221825;1268;22675;-47
2023/07/25 11:34:20;;;;;;;2.30;2.20;;;26.40;49.90;;;;;;221797;1256;23902;-49
2023/07/25 11:39:24;;;;;;;3.20;1.90;;;26.30;49.80;;;;;;221672;1259;22578;-48
2023/07/25 11:44:28;;;;;;;1.80;1.70;;;26.30;50.20;;;;;;221642;1256;22628;-49
2023/07/25 11:49:34;;;;;;;3.30;2.00;;;26.30;49.80;;;;;;221773;1256;22515;-47
2023/07/25 11:54:59;;;;;;;1.90;1.80;;;26.30;49.50;;;;;;221712;1264;22642;-47
2023/07/25 12:00:07;;;;;;;2.00;1.90;;;26.40;49.50;;;;;;221743;1269;24462;-49
2023/07/25 12:05:27;;;;;;;2.20;2.00;;;26.30;49.30;;;;;;222248;1263;24196;-48
2023/07/25 12:10:33;;;;;;;2.30;2.10;;;26.30;49.10;;;;;;222233;1266;25214;-50
2023/07/25 12:15:42;;;;;;;2.10;1.90;;;26.30;49.20;;;;;;222286;1269;24262;-46
2023/07/25 12:20:46;;;;;;;1.80;1.70;;;26.20;48.80;;;;;;222342;1269;24355;-48
2023/07/25 12:26:01;;;;;;;2.30;2.10;;;26.20;49.00;;;;;;222223;1269;23040;-46
2023/07/25 12:31:05;;;;;;;2.10;1.90;;;26.20;49.00;;;;;;222337;1268;25345;-48
2023/07/25 12:36:10;;;;;;;2.20;2.00;;;26.20;49.30;;;;;;222108;1266;22623;-48
2023/07/25 12:41:14;;;;;;;1.90;1.80;;;26.30;49.20;;;;;;222567;1266;23276;-50
2023/07/25 12:46:19;;;;;;;2.40;2.20;;;26.20;49.30;;;;;;221945;1266;25217;-46
2023/07/25 12:51:23;;;;;;;2.70;1.80;;;26.20;49.50;;;;;;222270;1265;22637;-48
2023/07/25 12:56:27;;;;;;;1.90;1.80;;;26.20;49.40;;;;;;222219;1262;22533;-50
2023/07/25 13:01:32;;;;;;;3.30;2.10;;;26.30;49.10;;;;;;222453;1266;22564;-50
2023/07/25 13:06:39;;;;;;;4.30;2.10;;;26.30;49.30;;;;;;222518;1263;22710;-48
2023/07/25 13:11:44;;;;;;;3.90;2.10;;;26.50;49.50;;;;;;222578;1269;23804;-48
2023/07/25 13:16:48;;;;;;;2.70;2.30;;;26.50;49.10;;;;;;222705;1268;24031;-48
2023/07/25 13:21:54;;;;;;;1.90;1.80;;;26.40;49.50;;;;;;222499;1263;23976;-46
2023/07/25 13:26:59;;;;;;;3.30;2.70;;;26.50;49.60;;;;;;222701;1262;22502;-48
2023/07/25 13:32:10;;;;;;;4.30;2.20;;;26.60;50.00;;;;;;222276;1263;22516;-51
2023/07/25 13:37:17;;;;;;;8.40;2.60;;;26.50;50.50;;;;;;222646;1269;22520;-49
2023/07/25 13:42:22;;;;;;;7.30;2.80;;;26.50;50.70;;;;;;222416;1262;22531;-49
2023/07/25 13:47:27;;;;;;;3.60;2.40;;;26.50;50.50;;;;;;222490;1266;24164;-47
2023/07/25 13:52:33;;;;;;;2.90;2.30;;;26.40;50.20;;;;;;222292;1266;25304;-49
2023/07/25 13:57:37;;;;;;;4.80;2.00;;;26.20;50.60;;;;;;222234;1266;22534;-46
2023/07/25 14:02:59;;;;;;;4.00;2.30;;;26.10;49.90;;;;;;222295;1265;22602;-47
2023/07/25 14:08:07;;;;;;;5.90;2.30;;;26.10;50.00;;;;;;222517;1259;25278;-46
2023/07/25 14:13:12;;;;;;;2.00;1.80;;;26.00;50.00;;;;;;222495;1266;279394;-46
2023/07/25 14:18:17;;;;;;;3.00;2.30;;;26.00;50.00;;;;;;222324;1269;25262;-48
2023/07/25 14:23:23;;;;;;;3.50;2.40;;;26.00;50.10;;;;;;222575;1266;25402;-46
2023/07/25 14:28:28;;;;;;;2.00;1.90;;;26.10;49.80;;;;;;222571;1262;22508;-47
2023/07/25 14:33:33;;;;;;;2.60;2.10;;;26.10;49.70;;;;;;222493;1256;22574;-47
2023/07/25 14:38:43;;;;;;;3.10;2.50;;;26.10;50.10;;;;;;222327;1265;22507;-45
2023/07/25 14:43:48;;;;;;;2.30;2.20;;;26.00;49.70;;;;;;222388;1257;22507;-47
2023/07/25 14:48:59;;;;;;;3.50;2.80;;;26.00;49.70;;;;;;222485;1266;23934;-47
2023/07/25 14:54:03;;;;;;;2.10;1.90;;;26.00;48.70;;;;;;222412;1263;22539;-45
2023/07/25 14:59:10;;;;;;;3.20;2.00;;;25.90;48.80;;;;;;222341;1264;25922;-46
2023/07/25 15:04:14;;;;;;;3.10;2.60;;;26.00;49.00;;;;;;222351;1263;25384;-47
2023/07/25 15:09:18;;;;;;;2.30;2.10;;;26.00;48.80;;;;;;222524;1267;22682;-49
2023/07/25 15:14:25;;;;;;;3.10;2.20;;;26.00;48.80;;;;;;222374;1254;22528;-50
2023/07/25 15:19:30;;;;;;;2.50;2.30;;;26.10;49.50;;;;;;222580;1248;22640;-47
2023/07/25 15:24:34;;;;;;;2.10;2.00;;;26.20;49.10;;;;;;222412;1266;22534;-48
2023/07/25 15:29:39;;;;;;;2.40;2.20;;;26.10;49.10;;;;;;222222;1265;22526;-45
2023/07/25 15:34:46;;;;;;;4.30;2.50;;;26.10;48.60;;;;;;222153;1266;22535;-51
2023/07/25 15:39:51;;;;;;;2.60;2.20;;;26.10;48.90;;;;;;222084;1266;25392;-48
2023/07/25 15:44:56;;;;;;;3.90;2.60;;;26.20;48.60;;;;;;222665;1263;22793;-45
2023/07/25 15:50:02;;;;;;;2.70;2.40;;;26.00;49.60;;;;;;222353;1266;24235;-46
2023/07/25 15:55:07;;;;;;;2.20;2.10;;;25.90;49.00;;;;;;222515;1264;24180;-44
2023/07/25 16:00:12;;;;;;;3.60;2.50;;;25.80;49.10;;;;;;222488;1266;22554;-47
2023/07/25 16:05:17;;;;;;;4.20;2.60;;;25.80;49.30;;;;;;222415;1262;24241;-47
2023/07/25 16:10:22;;;;;;;3.20;2.50;;;26.00;48.90;;;;;;222666;1264;22513;-47
2023/07/25 16:15:32;;;;;;;4.50;2.50;;;26.10;49.10;;;;;;222332;1262;22629;-46
2023/07/25 16:20:37;;;;;;;2.80;2.60;;;26.20;49.10;;;;;;222000;1248;22711;-43
2023/07/25 16:25:41;;;;;;;8.20;2.60;;;26.20;48.60;;;;;;229863;1253;22325;-46
2023/07/25 16:30:46;;;;;;;7.10;2.00;;;26.20;48.80;;;;;;223079;1264;22517;-46
2023/07/25 16:35:51;;;;;;;3.20;2.50;;;26.30;49.00;;;;;;222050;1248;24184;-46
2023/07/25 16:40:55;;;;;;;2.90;2.40;;;26.20;48.90;;;;;;221854;1260;24288;-47
2023/07/25 16:46:00;;;;;;;3.40;2.70;;;26.10;49.00;;;;;;222100;1266;24369;-46
2023/07/25 16:51:07;;;;;;;6.30;2.20;;;26.00;48.90;;;;;;222083;1254;24767;-46
2023/07/25 16:56:11;;;;;;;2.60;2.40;;;26.00;48.80;;;;;;222341;1269;24340;-45
2023/07/25 17:01:16;;;;;;;2.40;2.00;;;26.00;48.70;;;;;;222219;1254;23012;-44
2023/07/25 17:06:22;;;;;;;4.40;2.10;;;26.00;48.70;;;;;;222258;1262;24196;-44
2023/07/25 17:11:27;;;;;;;3.90;1.70;;;26.00;48.80;;;;;;222455;1266;25032;-45
2023/07/25 17:16:32;;;;;;;3.50;2.40;;;26.10;49.00;;;;;;222226;1264;24548;-46
2023/07/25 17:21:38;;;;;;;3.00;2.00;;;26.00;48.70;;;;;;222080;1263;24294;-44
2023/07/25 17:26:44;;;;;;;2.10;2.00;;;26.00;48.80;;;;;;222383;1266;25258;-45
2023/07/25 17:31:49;;;;;;;2.60;2.40;;;26.00;48.90;;;;;;222255;1262;22541;-46
2023/07/25 17:36:54;;;;;;;2.40;2.20;;;26.00;48.80;;;;;;222158;1266;25501;-46
2023/07/25 17:41:59;;;;;;;2.00;1.90;;;26.00;48.80;;;;;;221963;1265;22710;-45
2023/07/25 17:47:04;;;;;;;2.10;1.90;;;26.00;48.60;;;;;;222241;1254;24354;-48
2023/07/25 17:52:11;;;;;;;5.40;2.10;;;26.00;48.50;;;;;;222245;1263;24241;-45
2023/07/25 17:57:15;;;;;;;1.70;1.60;;;26.00;48.50;;;;;;222058;1266;25546;-49
2023/07/25 18:02:20;;;;;;;5.30;1.80;;;25.90;48.40;;;;;;222078;1262;25255;-46
2023/07/25 18:07:30;;;;;;;3.00;2.40;;;25.90;48.40;;;;;;222153;1257;23120;-45
2023/07/25 18:12:37;;;;;;;3.50;2.20;;;25.90;48.50;;;;;;222390;1257;24206;-44
2023/07/25 18:17:41;;;;;;;3.10;2.00;;;25.90;48.40;;;;;;221962;1267;22507;-47
2023/07/25 18:22:47;;;;;;;3.60;2.30;;;25.90;48.50;;;;;;222073;1261;22545;-45
2023/07/25 18:27:51;;;;;;;4.10;2.40;;;25.90;48.50;;;;;;222534;1264;22627;-48
2023/07/25 18:32:57;;;;;;;2.50;2.30;;;25.90;48.50;;;;;;221993;1263;24388;-44
2023/07/25 18:38:03;;;;;;;5.20;2.10;;;25.90;48.50;;;;;;222080;1266;22626;-45
2023/07/25 18:43:16;;;;;;;2.20;2.00;;;25.90;48.40;;;;;;222215;1269;23139;-48
2023/07/25 18:48:21;;;;;;;1.90;1.80;;;25.80;48.30;;;;;;221989;1269;22498;-45
2023/07/25 18:53:26;;;;;;;1.80;1.70;;;25.90;48.30;;;;;;222223;1264;25460;-45
2023/07/25 18:58:31;;;;;;;2.70;1.70;;;25.80;48.20;;;;;;221887;1263;25455;-46
2023/07/25 19:03:36;;;;;;;2.80;1.60;;;25.80;48.20;;;;;;222240;1264;25484;-44
2023/07/25 19:08:43;;;;;;;4.10;2.00;;;25.80;48.20;;;;;;222072;1254;23946;-45
2023/07/25 19:13:50;;;;;;;2.50;2.00;;;25.80;48.10;;;;;;222051;1264;22633;-46
2023/07/25 19:18:55;;;;;;;5.10;1.80;;;25.70;47.70;;;;;;222367;1264;22523;-47
2023/07/25 19:24:00;;;;;;;6.60;2.00;;;25.70;48.10;;;;;;222192;1262;24234;-45
2023/07/25 19:29:07;;;;;;;3.80;1.90;;;25.70;48.10;;;;;;222073;1263;22871;-44
2023/07/25 19:34:13;;;;;;;4.60;2.20;;;25.70;48.10;;;;;;222277;1269;22522;-45
2023/07/25 19:39:18;;;;;;;5.10;1.70;;;25.70;48.50;;;;;;222258;1253;24225;-46
2023/07/25 19:44:24;;;;;;;3.00;2.00;;;25.70;48.20;;;;;;222014;1261;24515;-45
2023/07/25 19:49:28;;;;;;;2.50;1.80;;;25.80;48.70;;;;;;222254;1263;22515;-45
2023/07/25 19:54:34;;;;;;;2.20;1.60;;;25.80;48.70;;;;;;222158;1263;25387;-45
2023/07/25 19:59:39;;;;;;;4.00;2.00;;;25.80;49.10;;;;;;222424;1263;22640;-46
2023/07/25 20:04:44;;;;;;;3.30;2.20;;;25.80;49.60;;;;;;222118;1261;22564;-44
2023/07/25 20:09:49;;;;;;;3.60;1.80;;;25.70;50.10;;;;;;222133;1254;25218;-47
2023/07/25 20:14:53;;;;;;;2.90;2.50;;;25.70;50.90;;;;;;222140;1266;22663;-45
2023/07/25 20:19:58;;;;;;;2.80;2.30;;;25.70;51.60;;;;;;222362;1266;22532;-45
2023/07/25 20:25:12;;;;;;;3.50;2.00;;;25.70;51.70;;;;;;222112;1256;24259;-47
2023/07/25 20:30:21;;;;;;;3.00;1.80;;;25.70;51.60;;;;;;222151;1266;22567;-44
2023/07/25 20:35:26;;;;;;;3.80;1.80;;;25.70;52.30;;;;;;222191;1266;24161;-45
2023/07/25 20:40:32;;;;;;;2.70;1.70;;;25.70;52.00;;;;;;222420;1269;24364;-46
2023/07/25 20:45:37;;;;;;;7.60;2.10;;;25.70;52.30;;;;;;222058;1264;22627;-45
2023/07/25 20:50:43;;;;;;;2.40;1.90;;;25.70;52.50;;;;;;222448;1263;22553;-47
2023/07/25 20:55:54;;;;;;;3.70;1.90;;;25.70;53.10;;;;;;222260;1257;25437;-46
2023/07/25 21:00:59;;;;;;;2.90;2.10;;;25.70;53.00;;;;;;222097;1260;26823;-46
2023/07/25 21:06:03;;;;;;;2.40;2.00;;;25.70;53.00;;;;;;222002;1258;25309;-43
2023/07/25 21:11:08;;;;;;;1.80;1.70;;;25.70;53.10;;;;;;222043;1269;22562;-45
2023/07/25 21:16:12;;;;;;;4.50;1.80;;;25.70;53.40;;;;;;222163;1260;22764;-47
2023/07/25 21:21:17;;;;;;;5.20;2.10;;;25.70;53.30;;;;;;222187;1262;22724;-46
2023/07/25 21:26:21;;;;;;;2.30;1.80;;;25.70;53.80;;;;;;221960;1269;22514;-44
2023/07/25 21:31:25;;;;;;;2.80;1.80;;;25.70;53.50;;;;;;221909;1263;24231;-46
2023/07/25 21:36:30;;;;;;;4.20;2.00;;;25.70;53.70;;;;;;222045;1264;22517;-45
2023/07/25 21:41:34;;;;;;;2.20;1.70;;;25.70;53.90;;;;;;221984;1267;22626;-44
2023/07/25 21:46:39;;;;;;;1.90;1.70;;;25.70;54.30;;;;;;222322;1269;22542;-47
2023/07/25 21:51:44;;;;;;;2.50;1.90;;;25.70;54.10;;;;;;222056;1263;22514;-45
2023/07/25 21:56:48;;;;;;;2.40;1.70;;;25.70;54.20;;;;;;221814;1264;22589;-46
2023/07/25 22:01:53;;;;;;;1.70;1.60;;;25.70;54.30;;;;;;221884;1254;22647;-44
2023/07/25 22:06:59;;;;;;;2.00;1.90;;;25.70;54.30;;;;;;221823;1264;22617;-44
2023/07/25 22:12:03;;;;;;;2.90;1.80;;;25.70;54.40;;;;;;222064;1258;24762;-47
2023/07/25 22:17:08;;;;;;;1.70;1.60;;;25.70;54.40;;;;;;222034;1270;25497;-45
2023/07/25 22:22:12;;;;;;;3.30;2.70;;;25.60;54.60;;;;;;221893;1269;22714;-44
2023/07/25 22:27:16;;;;;;;2.40;1.80;;;25.60;54.70;;;;;;222070;1269;22695;-44
2023/07/25 22:32:20;;;;;;;2.10;1.90;;;25.60;54.90;;;;;;221821;1269;22519;-46
2023/07/25 22:37:26;;;;;;;2.90;1.60;;;25.70;55.00;;;;;;222192;1263;22527;-47
2023/07/25 22:42:31;;;;;;;2.20;1.80;;;25.60;55.00;;;;;;221997;1254;22514;-44
2023/07/25 22:47:35;;;;;;;2.90;1.90;;;25.60;55.50;;;;;;222261;1258;24384;-48
2023/07/25 22:52:39;;;;;;;2.30;2.00;;;25.60;55.20;;;;;;221981;1269;24184;-44
2023/07/25 22:57:44;;;;;;;2.60;1.70;;;25.50;55.30;;;;;;222170;1255;22522;-44
2023/07/25 23:02:50;;;;;;;3.10;1.60;;;25.50;55.30;;;;;;222144;1254;24254;-45
2023/07/25 23:07:54;;;;;;;2.60;1.70;;;25.50;55.20;;;;;;221924;1254;24310;-47
2023/07/25 23:12:58;;;;;;;2.00;1.80;;;25.60;55.30;;;;;;221942;1269;22636;-47
2023/07/25 23:18:02;;;;;;;3.10;1.60;;;25.50;55.50;;;;;;222169;1267;22521;-46
2023/07/25 23:23:07;;;;;;;2.20;1.80;;;25.50;55.50;;;;;;222023;1254;24318;-46
2023/07/25 23:28:11;;;;;;;1.80;1.70;;;25.50;55.40;;;;;;221891;1269;22511;-46
2023/07/25 23:33:15;;;;;;;3.20;1.70;;;25.50;55.40;;;;;;222105;1254;24325;-43
2023/07/25 23:38:21;;;;;;;2.10;2.00;;;25.50;55.50;;;;;;222145;1247;25556;-45
2023/07/25 23:43:25;;;;;;;3.10;1.60;;;25.50;55.50;;;;;;221986;1267;22752;-44
2023/07/25 23:48:29;;;;;;;2.10;1.70;;;25.50;55.60;;;;;;221921;1255;22515;-44
2023/07/25 23:53:33;;;;;;;4.10;1.70;;;25.50;55.30;;;;;;222519;1254;22524;-45
2023/07/25 23:58:37;;;;;;;2.90;2.20;;;25.40;55.80;;;;;;222181;1257;22686;-46
